Terminal Aerodrome Forecast
Issued by NWS

Home | Current Version | Previous Version | Text Only | Print | Product List | Glossary On
Versions: 1 2 3 4 5 6 7 8 9 10 11 12 13 14 15 16 17 18 19 20 21 22 23 24
432
FTUS41 KPBZ 180530
TAFFKL
TAF
KFKL 180530Z 1806/1906 21005KT P6SM OVC035
     FM180900 20007KT 6SM BR OVC020
     FM181500 22007KT P6SM -DZ OVC015
     FM181700 22008KT P6SM OVC008=

USA.gov is the U.S. government's official web portal to all federal, state and local government web resources and services.